createdAt,value
2018-04-25T00:00:46.525Z,0
2018-04-25T00:01:46.422Z,0
2018-04-25T00:02:46.497Z,0
2018-04-25T00:03:46.499Z,0
2018-04-25T00:04:46.424Z,0
2018-04-25T00:05:46.503Z,0
2018-04-25T00:06:46.427Z,0
2018-04-25T00:07:46.429Z,0
2018-04-25T00:08:46.427Z,0
2018-04-25T00:09:46.504Z,0
2018-04-25T00:10:46.399Z,0
2018-04-25T00:11:46.492Z,0
2018-04-25T00:12:46.416Z,0
2018-04-25T00:13:46.493Z,0
2018-04-25T00:14:46.421Z,0
2018-04-25T00:15:46.535Z,0
2018-04-25T00:16:46.426Z,0
2018-04-25T00:17:46.495Z,0
2018-04-25T00:18:46.427Z,0
2018-04-25T00:19:46.498Z,0
2018-04-25T00:20:46.425Z,0
2018-04-25T00:21:46.533Z,0
2018-04-25T00:22:46.445Z,0
2018-04-25T00:23:46.502Z,0
2018-04-25T00:24:46.448Z,0
2018-04-25T00:25:46.550Z,0
2018-04-25T00:26:46.427Z,0
2018-04-25T00:27:46.526Z,0
2018-04-25T00:28:46.409Z,0
2018-04-25T00:29:46.509Z,0
2018-04-25T00:30:46.550Z,0
2018-04-25T00:31:46.508Z,0
2018-04-25T00:32:46.435Z,0
2018-04-25T00:33:46.438Z,0
2018-04-25T00:34:46.506Z,0
2018-04-25T00:35:46.507Z,0
2018-04-25T00:36:46.440Z,0
2018-04-25T00:37:46.512Z,0
2018-04-25T00:38:46.510Z,0
2018-04-25T00:39:46.440Z,0
2018-04-25T00:40:46.445Z,0
2018-04-25T00:41:46.483Z,0
2018-04-25T00:42:46.434Z,0
2018-04-25T00:43:46.549Z,0
2018-04-25T00:44:46.488Z,0
2018-04-25T00:45:46.629Z,0
2018-04-25T00:46:46.603Z,0
2018-04-25T00:47:46.521Z,0
2018-04-25T00:48:46.459Z,0
2018-04-25T00:49:46.584Z,0
2018-04-25T00:50:46.542Z,0
2018-04-25T00:51:46.463Z,0
2018-04-25T00:52:46.518Z,0
2018-04-25T00:53:46.429Z,0
2018-04-25T00:54:46.443Z,0
2018-04-25T00:55:46.431Z,0
2018-04-25T00:56:46.406Z,0
2018-04-25T00:57:46.462Z,0
2018-04-25T00:58:46.537Z,0
2018-04-25T00:59:46.463Z,0
2018-04-25T01:00:46.520Z,0
2018-04-25T01:02:46.467Z,0
2018-04-25T01:03:46.454Z,0
2018-04-25T01:04:46.510Z,0
2018-04-25T01:05:46.507Z,0
2018-04-25T01:06:46.588Z,0
2018-04-25T01:07:46.498Z,0
2018-04-25T01:08:46.540Z,0
2018-04-25T01:09:46.574Z,0
2018-04-25T01:10:46.460Z,0
2018-04-25T01:11:46.562Z,0
2018-04-25T01:12:46.511Z,0
2018-04-25T01:13:46.455Z,0
2018-04-25T01:14:46.499Z,0
2018-04-25T01:15:46.507Z,0
2018-04-25T01:16:46.574Z,0
2018-04-25T01:17:46.519Z,0
2018-04-25T01:18:46.539Z,0
2018-04-25T01:19:46.573Z,0
2018-04-25T01:20:46.539Z,0
2018-04-25T01:21:46.464Z,0
2018-04-25T01:22:46.421Z,0
2018-04-25T01:23:46.528Z,0
2018-04-25T01:24:46.448Z,0
2018-04-25T01:25:46.523Z,0
2018-04-25T01:26:46.465Z,0
2018-04-25T01:27:46.490Z,0
2018-04-25T01:28:46.522Z,0
2018-04-25T01:29:46.468Z,0
2018-04-25T01:30:46.542Z,0
2018-04-25T01:31:46.558Z,0
2018-04-25T01:32:46.583Z,0
2018-04-25T01:33:46.528Z,0
2018-04-25T01:34:46.455Z,0
2018-04-25T01:35:46.581Z,0
2018-04-25T01:36:46.554Z,0
2018-04-25T01:37:46.474Z,0
2018-04-25T01:38:46.469Z,0
2018-04-25T01:39:46.555Z,0
2018-04-25T01:40:46.551Z,0
2018-04-25T01:41:46.535Z,0
2018-04-25T01:42:46.476Z,0
2018-04-25T01:43:46.497Z,0
2018-04-25T01:44:46.526Z,0
2018-04-25T01:45:46.588Z,0
2018-04-25T01:46:46.566Z,0
2018-04-25T01:47:46.555Z,0
2018-04-25T01:48:46.487Z,0
2018-04-25T01:49:46.600Z,0
2018-04-25T01:50:46.499Z,0
2018-04-25T01:51:46.538Z,0
2018-04-25T01:52:46.460Z,0
2018-04-25T01:53:46.586Z,0
2018-04-25T01:54:46.547Z,0
2018-04-25T01:55:46.619Z,0
2018-04-25T01:56:46.590Z,0
2018-04-25T01:57:46.534Z,0
2018-04-25T01:58:46.596Z,0
2018-04-25T01:59:46.489Z,0
2018-04-25T02:00:46.543Z,0
2018-04-25T02:01:46.537Z,0
2018-04-25T02:02:46.535Z,0
2018-04-25T02:03:46.543Z,0
2018-04-25T02:04:46.600Z,0
2018-04-25T02:05:46.510Z,0
2018-04-25T02:06:46.544Z,0
2018-04-25T02:07:46.511Z,0
2018-04-25T02:08:46.509Z,0
2018-04-25T02:09:46.634Z,0
2018-04-25T02:10:46.574Z,0
2018-04-25T02:11:46.577Z,0
2018-04-25T02:12:46.578Z,0
2018-04-25T02:13:46.583Z,0
2018-04-25T02:14:46.511Z,0
2018-04-25T02:15:46.543Z,0
2018-04-25T02:16:46.508Z,0
2018-04-25T02:17:46.510Z,0
2018-04-25T02:18:46.586Z,0
2018-04-25T02:19:46.513Z,0
2018-04-25T02:20:46.576Z,0
2018-04-25T02:21:46.577Z,0
2018-04-25T02:22:46.543Z,0
2018-04-25T02:23:46.578Z,0
2018-04-25T02:24:46.506Z,0
2018-04-25T02:25:46.501Z,0
2018-04-25T02:26:46.616Z,0
2018-04-25T02:27:46.605Z,0
2018-04-25T02:28:46.551Z,0
2018-04-25T02:29:46.556Z,0
2018-04-25T02:30:46.648Z,0
2018-04-25T02:31:46.523Z,0
2018-04-25T02:32:46.617Z,0
2018-04-25T02:33:46.555Z,0
2018-04-25T02:34:46.569Z,0
2018-04-25T02:35:46.611Z,0
2018-04-25T02:36:46.650Z,0
2018-04-25T02:37:46.505Z,0
2018-04-25T02:38:46.514Z,0
2018-04-25T02:39:46.620Z,0
2018-04-25T02:40:46.529Z,0
2018-04-25T02:41:46.570Z,0
2018-04-25T02:42:46.508Z,0
2018-04-25T02:43:46.658Z,0
2018-04-25T02:44:46.602Z,0
2018-04-25T02:45:46.573Z,0
2018-04-25T02:46:46.615Z,0
2018-04-25T02:47:46.562Z,0
2018-04-25T02:48:46.570Z,0
2018-04-25T02:49:46.598Z,0
2018-04-25T02:50:46.633Z,0
2018-04-25T02:51:46.661Z,0
2018-04-25T02:52:46.536Z,0
2018-04-25T02:53:46.575Z,0
2018-04-25T02:54:46.613Z,0
2018-04-25T02:55:46.619Z,0
2018-04-25T02:56:46.637Z,0
2018-04-25T02:57:46.641Z,0
2018-04-25T02:58:46.609Z,0
2018-04-25T02:59:46.601Z,0
2018-04-25T03:00:46.583Z,0
2018-04-25T03:01:46.615Z,0
2018-04-25T03:02:46.604Z,0
2018-04-25T03:03:46.651Z,0
2018-04-25T03:04:46.667Z,0
2018-04-25T03:05:46.609Z,0
2018-04-25T03:06:46.608Z,0
2018-04-25T03:07:46.611Z,0
2018-04-25T03:08:46.616Z,0
2018-04-25T03:09:46.627Z,0
2018-04-25T03:10:46.576Z,0
2018-04-25T03:11:46.530Z,0
2018-04-25T03:12:46.590Z,0
2018-04-25T03:13:46.587Z,0
2018-04-25T03:14:46.586Z,0
2018-04-25T03:16:46.542Z,0
2018-04-25T03:17:46.539Z,0
2018-04-25T03:18:46.588Z,0
2018-04-25T03:19:46.663Z,0
2018-04-25T03:20:46.599Z,0
2018-04-25T03:21:46.600Z,0
2018-04-25T03:22:46.644Z,0
2018-04-25T03:23:46.685Z,0
2018-04-25T03:24:46.641Z,0
2018-04-25T03:25:46.521Z,0
2018-04-25T03:26:46.598Z,0
2018-04-25T03:27:46.652Z,0
2018-04-25T03:28:46.636Z,0
2018-04-25T03:29:46.656Z,0
2018-04-25T03:30:46.567Z,0
2018-04-25T03:31:46.539Z,0
2018-04-25T03:32:46.589Z,0
2018-04-25T03:33:46.625Z,0
2018-04-25T03:34:46.720Z,0
2018-04-25T03:35:46.607Z,0
2018-04-25T03:36:46.629Z,0
2018-04-25T03:37:46.644Z,0
2018-04-25T03:38:46.654Z,0
2018-04-25T03:39:46.648Z,0
2018-04-25T03:40:46.602Z,0
2018-04-25T03:41:46.660Z,0
2018-04-25T03:42:46.602Z,0
2018-04-25T03:43:46.678Z,0
2018-04-25T03:44:46.611Z,0
2018-04-25T03:45:46.654Z,0
2018-04-25T03:46:46.549Z,0
2018-04-25T03:47:46.636Z,0
2018-04-25T03:48:46.604Z,0
2018-04-25T03:49:46.603Z,0
2018-04-25T03:50:46.666Z,0
2018-04-25T03:51:46.555Z,0
2018-04-25T03:52:46.539Z,0
2018-04-25T03:53:46.635Z,0
2018-04-25T03:54:46.533Z,0
2018-04-25T03:55:46.540Z,0
2018-04-25T03:56:46.656Z,0
2018-04-25T03:57:46.655Z,0
2018-04-25T03:58:46.663Z,0
2018-04-25T03:59:46.651Z,0
2018-04-25T04:00:46.600Z,0
2018-04-25T04:01:46.612Z,0
2018-04-25T04:02:46.674Z,5
2018-04-25T04:03:46.665Z,5
2018-04-25T04:04:46.672Z,5
2018-04-25T04:05:46.679Z,5
2018-04-25T04:06:46.562Z,5
2018-04-25T04:07:46.652Z,5
2018-04-25T04:08:46.615Z,5
2018-04-25T04:09:46.667Z,5
2018-04-25T04:10:46.673Z,11
2018-04-25T04:11:46.564Z,11
2018-04-25T04:12:46.615Z,11
2018-04-25T04:13:46.676Z,16
2018-04-25T04:14:46.632Z,16
2018-04-25T04:15:46.554Z,22
2018-04-25T04:16:46.711Z,22
2018-04-25T04:17:46.658Z,22
2018-04-25T04:18:46.617Z,22
2018-04-25T04:19:46.651Z,22
2018-04-25T04:20:46.630Z,22
2018-04-25T04:21:46.570Z,22
2018-04-25T04:22:46.654Z,28
2018-04-25T04:23:46.633Z,28
2018-04-25T04:24:46.699Z,33
2018-04-25T04:25:46.677Z,39
2018-04-25T04:26:46.619Z,39
2018-04-25T04:27:46.657Z,45
2018-04-25T04:28:46.581Z,50
2018-04-25T04:29:46.580Z,50
2018-04-25T04:30:46.616Z,50
2018-04-25T04:31:46.625Z,45
2018-04-25T04:32:46.625Z,39
2018-04-25T04:33:46.581Z,39
2018-04-25T04:34:46.586Z,39
2018-04-25T04:35:46.639Z,39
2018-04-25T04:36:46.626Z,45
2018-04-25T04:37:46.628Z,45
2018-04-25T04:38:46.640Z,45
2018-04-25T04:39:46.570Z,50
2018-04-25T04:40:46.685Z,50
2018-04-25T04:41:46.639Z,50
2018-04-25T04:42:46.670Z,56
2018-04-25T04:43:46.628Z,56
2018-04-25T04:44:46.610Z,61
2018-04-25T04:45:46.607Z,78
2018-04-25T04:46:46.691Z,112
2018-04-25T04:47:46.672Z,129
2018-04-25T04:48:46.571Z,146
2018-04-25T04:49:46.702Z,157
2018-04-25T04:50:46.625Z,135
2018-04-25T04:51:46.707Z,112
2018-04-25T04:52:46.636Z,90
2018-04-25T04:53:46.594Z,73
2018-04-25T04:54:46.573Z,61
2018-04-25T04:55:46.707Z,56
2018-04-25T04:56:46.682Z,50
2018-04-25T04:57:46.733Z,45
2018-04-25T04:58:46.714Z,45
2018-04-25T04:59:46.759Z,39
2018-04-25T05:00:46.700Z,45
2018-04-25T05:01:46.716Z,56
2018-04-25T05:02:46.684Z,61
2018-04-25T05:03:46.632Z,73
2018-04-25T05:04:46.613Z,78
2018-04-25T05:05:46.687Z,78
2018-04-25T05:06:46.685Z,84
2018-04-25T05:07:46.617Z,78
2018-04-25T05:08:46.763Z,84
2018-04-25T05:09:46.619Z,84
2018-04-25T05:10:46.685Z,78
2018-04-25T05:11:46.691Z,73
2018-04-25T05:12:46.685Z,78
2018-04-25T05:13:46.590Z,84
2018-04-25T05:14:46.715Z,78
2018-04-25T05:15:46.656Z,84
2018-04-25T05:16:46.596Z,101
2018-04-25T05:17:46.656Z,123
2018-04-25T05:18:46.718Z,123
2018-04-25T05:19:46.610Z,118
2018-04-25T05:20:46.622Z,140
2018-04-25T05:21:46.768Z,146
2018-04-25T05:22:46.659Z,146
2018-04-25T05:23:46.727Z,146
2018-04-25T05:24:46.734Z,146
2018-04-25T05:25:46.671Z,157
2018-04-25T05:26:46.694Z,180
2018-04-25T05:27:46.673Z,202
2018-04-25T05:28:46.716Z,202
2018-04-25T05:29:46.635Z,180
2018-04-25T05:30:46.672Z,163
2018-04-25T05:31:46.769Z,168
2018-04-25T05:32:46.696Z,174
2018-04-25T05:33:46.695Z,191
2018-04-25T05:34:46.630Z,208
2018-04-25T05:35:46.648Z,219
2018-04-25T05:36:46.700Z,196
2018-04-25T05:37:46.699Z,196
2018-04-25T05:38:46.682Z,196
2018-04-25T05:39:46.633Z,219
2018-04-25T05:40:46.705Z,275
2018-04-25T05:41:46.633Z,303
2018-04-25T05:42:46.723Z,247
2018-04-25T05:43:46.665Z,230
2018-04-25T05:44:46.738Z,292
2018-04-25T05:45:46.611Z,354
2018-04-25T05:46:46.733Z,388
2018-04-25T05:47:46.747Z,399
2018-04-25T05:48:46.707Z,410
2018-04-25T05:49:46.681Z,433
2018-04-25T05:50:46.706Z,405
2018-04-25T05:51:46.673Z,365
2018-04-25T05:52:46.730Z,360
2018-04-25T05:53:46.644Z,354
2018-04-25T05:54:46.717Z,348
2018-04-25T05:55:46.647Z,376
2018-04-25T05:56:46.722Z,433
2018-04-25T05:57:46.745Z,405
2018-04-25T05:58:46.649Z,360
2018-04-25T05:59:46.717Z,427
2018-04-25T06:00:46.645Z,579
2018-04-25T06:01:46.718Z,686
2018-04-25T06:02:46.723Z,697
2018-04-25T06:03:46.747Z,781
2018-04-25T06:04:46.717Z,652
2018-04-25T06:05:46.690Z,601
2018-04-25T06:06:46.756Z,646
2018-04-25T06:07:46.673Z,624
2018-04-25T06:08:46.620Z,714
2018-04-25T06:09:46.627Z,765
2018-04-25T06:10:46.755Z,742
2018-04-25T06:11:46.750Z,720
2018-04-25T06:12:46.723Z,635
2018-04-25T06:13:46.688Z,669
2018-04-25T06:14:46.692Z,703
2018-04-25T06:15:46.699Z,691
2018-04-25T06:16:46.702Z,641
2018-04-25T06:17:46.702Z,708
2018-04-25T06:18:46.728Z,765
2018-04-25T06:19:46.699Z,753
2018-04-25T06:20:46.731Z,753
2018-04-25T06:21:46.758Z,810
2018-04-25T06:22:46.735Z,708
2018-04-25T06:23:46.690Z,562
2018-04-25T06:24:46.759Z,444
2018-04-25T06:25:46.760Z,433
2018-04-25T06:26:46.701Z,506
2018-04-25T06:27:46.750Z,523
2018-04-25T06:28:46.651Z,562
2018-04-25T06:29:46.704Z,607
2018-04-25T06:30:46.766Z,618
2018-04-25T06:31:46.714Z,675
2018-04-25T06:32:46.667Z,658
2018-04-25T06:33:46.741Z,658
2018-04-25T06:34:46.669Z,697
2018-04-25T06:35:46.737Z,860
2018-04-25T06:36:46.736Z,933
2018-04-25T06:37:46.741Z,984
2018-04-25T06:38:46.773Z,978
2018-04-25T06:39:46.742Z,995
2018-04-25T06:40:46.746Z,956
2018-04-25T06:41:46.676Z,894
2018-04-25T06:42:46.681Z,832
2018-04-25T06:43:46.726Z,776
2018-04-25T06:45:46.772Z,669
2018-04-25T06:46:46.745Z,641
2018-04-25T06:47:46.713Z,472
2018-04-25T06:48:46.747Z,337
2018-04-25T06:49:46.787Z,348
2018-04-25T06:50:46.830Z,376
2018-04-25T06:51:46.683Z,438
2018-04-25T06:52:46.706Z,545
2018-04-25T06:53:46.687Z,731
2018-04-25T06:54:46.788Z,804
2018-04-25T06:55:46.767Z,765
2018-04-25T06:56:46.808Z,731
2018-04-25T06:57:46.722Z,540
2018-04-25T06:58:46.707Z,506
2018-04-25T06:59:46.831Z,427
2018-04-25T07:00:46.785Z,478
2018-04-25T07:01:46.665Z,450
2018-04-25T07:02:46.707Z,472
2018-04-25T07:03:46.770Z,646
2018-04-25T07:04:46.663Z,787
2018-04-25T07:05:46.601Z,776
2018-04-25T07:06:46.612Z,832
2018-04-25T07:07:46.658Z,933
2018-04-25T07:08:46.637Z,1006
2018-04-25T07:09:46.704Z,781
2018-04-25T07:10:46.710Z,466
2018-04-25T07:11:46.616Z,433
2018-04-25T07:12:46.758Z,421
2018-04-25T07:13:46.667Z,489
2018-04-25T07:14:46.732Z,472
2018-04-25T07:15:46.762Z,579
2018-04-25T07:16:46.784Z,675
2018-04-25T07:17:46.797Z,585
2018-04-25T07:18:46.684Z,635
2018-04-25T07:19:46.734Z,793
2018-04-25T07:20:46.791Z,613
2018-04-25T07:21:46.763Z,416
2018-04-25T07:22:46.721Z,337
2018-04-25T07:23:46.769Z,360
2018-04-25T07:24:46.775Z,371
2018-04-25T07:25:46.672Z,326
2018-04-25T07:26:46.764Z,298
2018-04-25T07:27:46.718Z,315
2018-04-25T07:28:46.720Z,360
2018-04-25T07:29:46.761Z,388
2018-04-25T07:30:46.733Z,444
2018-04-25T07:31:46.762Z,455
2018-04-25T07:32:46.796Z,579
2018-04-25T07:33:46.815Z,748
2018-04-25T07:34:46.733Z,708
2018-04-25T07:35:46.814Z,776
2018-04-25T07:36:46.680Z,810
2018-04-25T07:37:46.795Z,663
2018-04-25T07:38:46.757Z,832
2018-04-25T07:39:46.812Z,990
2018-04-25T07:40:46.802Z,961
2018-04-25T07:41:46.805Z,866
2018-04-25T07:42:46.783Z,888
2018-04-25T07:43:46.784Z,956
2018-04-25T07:44:46.717Z,748
2018-04-25T07:45:46.788Z,433
2018-04-25T07:46:46.714Z,466
2018-04-25T07:47:46.882Z,585
2018-04-25T07:48:46.785Z,523
2018-04-25T07:49:46.718Z,433
2018-04-25T07:50:46.785Z,388
2018-04-25T07:51:46.785Z,376
2018-04-25T07:52:46.812Z,393
2018-04-25T07:53:46.693Z,399
2018-04-25T07:54:46.758Z,444
2018-04-25T07:55:46.811Z,517
2018-04-25T07:56:46.759Z,635
2018-04-25T07:57:46.878Z,787
2018-04-25T07:58:46.824Z,804
2018-04-25T07:59:46.822Z,731
2018-04-25T08:00:46.699Z,534
2018-04-25T08:01:46.832Z,416
2018-04-25T08:02:46.791Z,410
2018-04-25T08:03:46.725Z,354
2018-04-25T08:04:46.795Z,253
2018-04-25T08:05:46.794Z,191
2018-04-25T08:06:46.830Z,157
2018-04-25T08:07:46.797Z,180
2018-04-25T08:08:46.694Z,191
2018-04-25T08:12:46.708Z,343
2018-04-25T08:13:46.792Z,331
2018-04-25T08:14:46.784Z,331
2018-04-25T08:15:46.784Z,365
2018-04-25T08:16:46.730Z,511
2018-04-25T08:17:46.857Z,798
2018-04-25T08:18:46.754Z,1051
2018-04-25T08:19:46.707Z,1170
2018-04-25T08:20:46.740Z,1158
2018-04-25T08:21:46.791Z,1181
2018-04-25T08:22:46.776Z,1276
2018-04-25T08:23:46.927Z,1288
2018-04-25T08:24:46.770Z,1181
2018-04-25T08:25:46.712Z,1147
2018-04-25T08:26:46.766Z,1243
2018-04-25T08:27:46.712Z,973
2018-04-25T08:28:46.834Z,635
2018-04-25T08:29:46.718Z,483
2018-04-25T08:30:46.842Z,444
2018-04-25T08:31:46.780Z,455
2018-04-25T08:32:46.790Z,590
2018-04-25T08:33:46.711Z,731
2018-04-25T08:34:46.835Z,675
2018-04-25T08:35:46.848Z,562
2018-04-25T08:36:46.773Z,624
2018-04-25T08:37:46.845Z,753
2018-04-25T08:38:46.721Z,798
2018-04-25T08:39:46.722Z,748
2018-04-25T08:40:46.869Z,720
2018-04-25T08:41:46.771Z,669
2018-04-25T08:42:46.851Z,883
2018-04-25T08:43:46.820Z,916
2018-04-25T08:44:46.745Z,956
2018-04-25T08:45:46.858Z,1035
2018-04-25T08:46:46.783Z,1096
2018-04-25T08:47:46.853Z,1164
2018-04-25T08:48:46.835Z,1164
2018-04-25T08:49:46.798Z,1130
2018-04-25T08:50:46.839Z,1130
2018-04-25T08:51:46.845Z,1153
2018-04-25T08:52:46.906Z,1158
2018-04-25T08:53:46.754Z,1113
2018-04-25T08:54:46.829Z,1035
2018-04-25T08:55:46.757Z,1029
2018-04-25T08:56:46.825Z,1125
2018-04-25T08:57:46.757Z,1203
2018-04-25T08:58:46.825Z,1220
2018-04-25T08:59:46.834Z,1243
2018-04-25T09:00:46.762Z,1226
2018-04-25T09:01:46.759Z,1186
2018-04-25T09:02:46.818Z,1130
2018-04-25T09:03:46.693Z,1063
2018-04-25T09:04:46.780Z,1102
2018-04-25T09:05:46.782Z,1215
2018-04-25T09:06:46.785Z,1316
2018-04-25T09:07:46.714Z,1293
2018-04-25T09:08:46.786Z,1254
2018-04-25T09:09:46.707Z,1265
2018-04-25T09:10:46.795Z,1350
2018-04-25T09:11:46.739Z,1462
2018-04-25T09:12:46.858Z,1524
2018-04-25T09:13:46.797Z,1535
2018-04-25T09:14:46.838Z,1530
2018-04-25T09:15:46.839Z,1580
2018-04-25T09:16:46.772Z,1603
2018-04-25T09:17:46.873Z,1569
2018-04-25T09:18:46.772Z,1513
2018-04-25T09:19:46.772Z,1462
2018-04-25T09:20:46.846Z,1395
2018-04-25T09:21:46.845Z,1406
2018-04-25T09:22:46.802Z,1524
2018-04-25T09:23:46.803Z,1749
2018-04-25T09:24:46.880Z,2165
2018-04-25T09:25:46.751Z,2435
2018-04-25T09:26:46.763Z,2013
2018-04-25T09:27:46.746Z,1777
2018-04-25T09:28:46.886Z,1918
2018-04-25T09:29:46.866Z,2013
2018-04-25T09:30:46.808Z,2092
2018-04-25T09:31:46.856Z,2435
2018-04-25T09:32:46.806Z,2992
2018-04-25T09:33:46.817Z,2283
2018-04-25T09:34:46.865Z,2801
2018-04-25T09:35:46.826Z,3735
2018-04-25T09:36:46.820Z,5585
2018-04-25T09:37:46.751Z,3746
2018-04-25T09:38:46.805Z,2559
2018-04-25T09:39:46.854Z,2677
2018-04-25T09:40:46.886Z,2660
2018-04-25T09:41:46.863Z,2300
2018-04-25T09:42:46.870Z,5855
2018-04-25T09:43:46.787Z,2520
2018-04-25T09:44:46.862Z,2750
2018-04-25T09:45:46.787Z,2694
2018-04-25T09:46:46.861Z,5523
2018-04-25T09:47:46.791Z,5940
2018-04-25T09:48:46.896Z,2311
2018-04-25T09:49:46.789Z,2227
2018-04-25T09:50:46.860Z,2570
2018-04-25T09:51:46.928Z,4050
2018-04-25T09:52:46.868Z,3757
2018-04-25T09:53:46.863Z,2958
2018-04-25T09:54:46.793Z,4612
2018-04-25T09:55:46.865Z,1996
2018-04-25T09:56:46.869Z,5096
2018-04-25T09:57:46.819Z,5101
2018-04-25T09:58:46.939Z,5101
2018-04-25T09:59:46.794Z,5715
2018-04-25T10:00:46.872Z,5703
2018-04-25T10:01:46.798Z,2188
2018-04-25T10:02:46.799Z,6108
2018-04-25T10:03:46.753Z,1968
2018-04-25T10:04:46.826Z,5546
2018-04-25T10:05:46.807Z,5692
2018-04-25T10:06:46.798Z,5512
2018-04-25T10:07:46.810Z,5467
2018-04-25T10:08:46.753Z,5360
2018-04-25T10:09:46.871Z,5433
2018-04-25T10:10:46.917Z,4978
2018-04-25T10:11:46.764Z,5647
2018-04-25T10:12:46.871Z,4252
2018-04-25T10:13:46.877Z,6131
2018-04-25T10:14:46.814Z,3459
2018-04-25T10:15:46.881Z,5681
2018-04-25T10:16:46.808Z,2587
2018-04-25T10:17:46.884Z,5776
2018-04-25T10:18:46.867Z,5973
2018-04-25T10:19:46.813Z,5872
2018-04-25T10:20:46.879Z,6153
2018-04-25T10:22:46.818Z,5776
2018-04-25T10:23:46.822Z,4865
2018-04-25T10:24:46.914Z,3549
2018-04-25T10:25:46.902Z,2784
2018-04-25T10:26:46.927Z,2536
2018-04-25T10:27:46.905Z,2137
2018-04-25T10:28:46.891Z,5338
2018-04-25T10:29:46.897Z,5141
2018-04-25T10:30:46.791Z,1271
2018-04-25T10:31:46.860Z,956
2018-04-25T10:32:46.965Z,776
2018-04-25T10:33:46.887Z,663
2018-04-25T10:34:46.888Z,669
2018-04-25T10:35:46.820Z,568
2018-04-25T10:36:46.891Z,472
2018-04-25T10:37:46.892Z,405
2018-04-25T10:38:46.822Z,348
2018-04-25T10:39:46.890Z,326
2018-04-25T10:40:46.830Z,343
2018-04-25T10:41:46.892Z,399
2018-04-25T10:42:46.828Z,483
2018-04-25T10:43:46.862Z,579
2018-04-25T10:44:46.912Z,658
2018-04-25T10:45:46.858Z,675
2018-04-25T10:46:46.818Z,725
2018-04-25T10:47:46.865Z,770
2018-04-25T10:48:46.859Z,787
2018-04-25T10:49:46.923Z,843
2018-04-25T10:50:46.930Z,916
2018-04-25T10:51:46.912Z,1018
2018-04-25T10:52:46.939Z,1113
2018-04-25T10:53:46.842Z,1175
2018-04-25T10:54:46.805Z,1181
2018-04-25T10:55:46.774Z,1164
2018-04-25T10:56:46.788Z,1220
2018-04-25T10:57:46.885Z,1254
2018-04-25T10:58:46.888Z,1215
2018-04-25T10:59:46.892Z,1170
2018-04-25T11:00:46.815Z,1153
2018-04-25T11:01:46.891Z,1125
2018-04-25T11:02:46.858Z,1063
2018-04-25T11:03:46.838Z,1012
2018-04-25T11:04:46.908Z,945
2018-04-25T11:05:46.844Z,922
2018-04-25T11:06:46.843Z,928
2018-04-25T11:07:46.915Z,911
2018-04-25T11:08:46.844Z,905
2018-04-25T11:09:46.843Z,916
2018-04-25T11:10:46.912Z,956
2018-04-25T11:11:46.796Z,1029
2018-04-25T11:12:46.906Z,1074
2018-04-25T11:13:46.848Z,1012
2018-04-25T11:14:46.914Z,883
2018-04-25T11:15:46.861Z,810
2018-04-25T11:16:46.922Z,680
2018-04-25T11:17:46.850Z,686
2018-04-25T11:18:46.925Z,736
2018-04-25T11:19:46.853Z,748
2018-04-25T11:20:46.852Z,793
2018-04-25T11:21:46.854Z,950
2018-04-25T11:22:46.919Z,1125
2018-04-25T11:23:46.917Z,1209
2018-04-25T11:24:46.918Z,1231
2018-04-25T11:25:46.850Z,1355
2018-04-25T11:26:46.920Z,1603
2018-04-25T11:27:46.849Z,1665
2018-04-25T11:28:46.919Z,1541
2018-04-25T11:29:46.853Z,1462
2018-04-25T11:30:46.927Z,1445
2018-04-25T11:31:47.020Z,1372
2018-04-25T11:32:46.927Z,1305
2018-04-25T11:33:46.858Z,1355
2018-04-25T11:34:46.924Z,1485
2018-04-25T11:35:46.866Z,1575
2018-04-25T11:36:46.925Z,1704
2018-04-25T11:37:46.932Z,1884
2018-04-25T11:38:46.891Z,2092
2018-04-25T11:39:46.935Z,2356
2018-04-25T11:40:46.934Z,2649
2018-04-25T11:41:46.898Z,3313
2018-04-25T11:42:46.928Z,3133
2018-04-25T11:43:46.916Z,3195
2018-04-25T11:44:46.839Z,5855
2018-04-25T11:45:46.842Z,1996
2018-04-25T11:46:46.870Z,1867
2018-04-25T11:47:46.916Z,2446
2018-04-25T11:48:46.923Z,2278
2018-04-25T11:49:46.888Z,2295
2018-04-25T11:50:46.826Z,2306
2018-04-25T11:51:46.921Z,1620
2018-04-25T11:52:46.846Z,1687
2018-04-25T11:53:46.935Z,1681
2018-04-25T11:54:46.892Z,1507
2018-04-25T11:55:46.908Z,1338
2018-04-25T11:56:46.907Z,2491
2018-04-25T11:57:46.955Z,2272
2018-04-25T11:58:46.971Z,1946
2018-04-25T11:59:46.924Z,1732
2018-04-25T12:00:46.905Z,1890
2018-04-25T12:01:46.927Z,1608
2018-04-25T12:02:46.882Z,1552
2018-04-25T12:03:46.895Z,1563
2018-04-25T12:04:46.949Z,1597
2018-04-25T12:05:46.884Z,2165
2018-04-25T12:06:46.956Z,1766
2018-04-25T12:07:46.879Z,1670
2018-04-25T12:08:46.950Z,1946
2018-04-25T12:09:46.950Z,2278
2018-04-25T12:10:46.879Z,2396
2018-04-25T12:11:46.949Z,2154
2018-04-25T12:12:46.882Z,1783
2018-04-25T12:13:46.849Z,1462
2018-04-25T12:14:46.898Z,1440
2018-04-25T12:15:46.906Z,1771
2018-04-25T12:16:46.895Z,1963
2018-04-25T12:17:46.802Z,2520
2018-04-25T12:18:46.898Z,3982
2018-04-25T12:19:46.802Z,4505
2018-04-25T12:20:46.809Z,1625
2018-04-25T12:21:46.810Z,1327
2018-04-25T12:22:46.901Z,1102
2018-04-25T12:23:46.932Z,1366
2018-04-25T12:24:46.921Z,4719
2018-04-25T12:25:46.932Z,5473
2018-04-25T12:26:46.988Z,3549
2018-04-25T12:27:46.993Z,4837
2018-04-25T12:28:46.915Z,2390
2018-04-25T12:29:46.913Z,2401
2018-04-25T12:30:46.968Z,5585
2018-04-25T12:31:46.872Z,3082
2018-04-25T12:32:46.937Z,1940
2018-04-25T12:33:46.887Z,1996
2018-04-25T12:34:47.059Z,5197
2018-04-25T12:35:47.041Z,5045
2018-04-25T12:36:46.937Z,5146
2018-04-25T12:37:46.989Z,4567
2018-04-25T12:38:46.989Z,4938
2018-04-25T12:39:46.983Z,4556
2018-04-25T12:40:47.020Z,4522
2018-04-25T12:41:46.945Z,4601
2018-04-25T12:42:46.935Z,4505
2018-04-25T12:43:46.995Z,4657
2018-04-25T12:44:47.038Z,4758
2018-04-25T12:45:46.992Z,4972
2018-04-25T12:46:47.000Z,3082
2018-04-25T12:47:47.011Z,2131
2018-04-25T12:48:46.910Z,4798
2018-04-25T12:49:46.991Z,2328
2018-04-25T12:50:46.973Z,5141
2018-04-25T12:51:46.995Z,2278
2018-04-25T12:52:46.938Z,4916
2018-04-25T12:53:46.906Z,4933
2018-04-25T12:54:46.876Z,4865
2018-04-25T12:55:46.911Z,5113
2018-04-25T12:56:46.979Z,4854
2018-04-25T12:57:46.989Z,4775
2018-04-25T12:58:46.984Z,4775
2018-04-25T12:59:46.950Z,4725
2018-04-25T13:00:46.911Z,4612
2018-04-25T13:01:47.089Z,2025
2018-04-25T13:02:46.914Z,3436
2018-04-25T13:03:46.916Z,3330
2018-04-25T13:04:46.992Z,4483
2018-04-25T13:05:46.986Z,2829
2018-04-25T13:06:46.985Z,1760
2018-04-25T13:07:46.925Z,4398
2018-04-25T13:08:46.922Z,4303
2018-04-25T13:09:46.921Z,4168
2018-04-25T13:10:46.992Z,4201
2018-04-25T13:11:46.940Z,4263
2018-04-25T13:12:46.923Z,4308
2018-04-25T13:13:46.961Z,4331
2018-04-25T13:14:46.952Z,4376
2018-04-25T13:15:46.899Z,4460
2018-04-25T13:16:46.949Z,4438
2018-04-25T13:17:47.021Z,4325
2018-04-25T13:18:46.953Z,4353
2018-04-25T13:19:46.954Z,4348
2018-04-25T13:20:46.965Z,4303
2018-04-25T13:21:46.962Z,4308
2018-04-25T13:22:47.014Z,4252
2018-04-25T13:23:46.923Z,2863
2018-04-25T13:24:46.998Z,1884
2018-04-25T13:25:47.031Z,2278
2018-04-25T13:26:46.926Z,4230
2018-04-25T13:27:46.994Z,4190
2018-04-25T13:28:46.997Z,4286
2018-04-25T13:29:46.994Z,4235
2018-04-25T13:30:46.935Z,4263
2018-04-25T13:31:47.005Z,4224
2018-04-25T13:32:46.933Z,4201
2018-04-25T13:33:47.005Z,3571
2018-04-25T13:34:46.999Z,4168
2018-04-25T13:35:46.962Z,4066
2018-04-25T13:36:47.006Z,4134
2018-04-25T13:37:46.958Z,4072
2018-04-25T13:38:47.006Z,4016
2018-04-25T13:39:46.934Z,3898
2018-04-25T13:40:46.939Z,3830
2018-04-25T13:41:47.006Z,3926
2018-04-25T13:42:46.941Z,3976
2018-04-25T13:43:46.957Z,4027
2018-04-25T13:44:46.995Z,4061
2018-04-25T13:45:46.969Z,4213
2018-04-25T13:46:46.908Z,4275
2018-04-25T13:47:46.943Z,4038
2018-04-25T13:48:46.893Z,3847
2018-04-25T13:49:46.915Z,3532
2018-04-25T13:50:46.967Z,1608
2018-04-25T13:51:46.948Z,3391
2018-04-25T13:52:47.005Z,3324
2018-04-25T13:53:47.013Z,3290
2018-04-25T13:54:46.950Z,3391
2018-04-25T13:55:47.033Z,3380
2018-04-25T13:56:46.950Z,3408
2018-04-25T13:57:47.021Z,3420
2018-04-25T13:58:47.023Z,3616
2018-04-25T13:59:46.956Z,3650
2018-04-25T14:00:47.047Z,4055
2018-04-25T14:01:46.955Z,4027
2018-04-25T14:02:46.957Z,2030